Wetterstation Vordersexau
Wetterdaten: Mai 2012
Datum Temp. A. Feuchte A. Luftdruck Regen Wind Richtung Taupunkt Windchill Windben
01.05.2012 16,7 C 57 % 1014,4 hPa 0,0 l/m 3,4 km/h SW 7,8 C 16,0 C 1,9 km/h
02.05.2012 14,9 C 70 % 1012,7 hPa 6,4 l/m 11,8 km/h W-SW 9,2 C 12,7 C 6,5 km/h
03.05.2012 15,1 C 62 % 1011,1 hPa 0,0 l/m 3,9 km/h W-SW 7,1 C 14,7 C 2,2 km/h
04.05.2012 16,8 C 59 % 1004,7 hPa 0,0 l/m 2,0 km/h O-NO 7,4 C 16,6 C 1,1 km/h
05.05.2012 14,1 C 76 % 1004,1 hPa 2,5 l/m 9,4 km/h SW 9,8 C 11,8 C 5,2 km/h
06.05.2012 13,2 C 75 % 1008,1 hPa 1,1 l/m 7,7 km/h S-SW 8,8 C 11,6 C 4,3 km/h
07.05.2012 14,3 C 67 % 1014,7 hPa 0,0 l/m 2,9 km/h O-NO 7,7 C 13,7 C 1,6 km/h
08.05.2012 15,2 C 67 % 1013,6 hPa 1,1 l/m 6,7 km/h NO 8,3 C 14,1 C 3,7 km/h
09.05.2012 17,2 C 77 % 1015,3 hPa 1,8 l/m 7,0 km/h S 13,0 C 16,2 C 3,9 km/h
10.05.2012 21,9 C 62 % 1018,7 hPa 0,0 l/m 6,7 km/h W-SW 13,5 C 21,7 C 3,7 km/h
11.05.2012 24,4 C 58 % 1019,6 hPa 0,0 l/m 12,1 km/h SO 14,4 C 24,0 C 6,8 km/h
12.05.2012 15,2 C 68 % 1026,9 hPa 7,8 l/m 2,3 km/h N-NO 8,9 C 14,9 C 1,3 km/h
13.05.2012 14,0 C 53 % 1025,1 hPa 0,0 l/m 2,1 km/h N-NO 3,5 C 13,9 C 1,1 km/h
14.05.2012 13,9 C 54 % 1016,7 hPa 0,0 l/m 1,7 km/h NO 3,3 C 13,8 C 0,9 km/h
15.05.2012 9,8 C 71 % 1010,8 hPa 2,1 l/m 5,3 km/h NO 4,5 C 8,7 C 2,9 km/h
16.05.2012 8,4 C 73 % 1019,9 hPa 5,7 l/m 7,7 km/h W-SW 3,4 C 5,8 C 4,3 km/h
17.05.2012 12,8 C 56 % 1017,8 hPa 0,0 l/m 6,8 km/h SO 2,8 C 11,7 C 3,8 km/h
18.05.2012 15,8 C 64 % 1009,2 hPa 1,1 l/m 7,1 km/h SO 8,7 C 14,7 C 3,9 km/h
19.05.2012 18,8 C 67 % 1008,8 hPa 0,0 l/m 2,1 km/h SO 12,0 C 18,6 C 1,2 km/h
20.05.2012 20,4 C 67 % 1003,0 hPa 0,0 l/m 4,2 km/h N-NO 13,5 C 20,0 C 2,3 km/h
21.05.2012 17,0 C 76 % 997,8 hPa 8,9 l/m 4,6 km/h W-SW 12,5 C 16,3 C 2,5 km/h
22.05.2012 18,5 C 72 % 1004,8 hPa 1,1 l/m 2,6 km/h W-SW 13,1 C 18,2 C 1,4 km/h
23.05.2012 17,2 C 80 % 1017,8 hPa 0,7 l/m 2,0 km/h W 13,6 C 16,9 C 1,1 km/h
24.05.2012 20,5 C 75 % 1019,8 hPa 0,7 l/m 2,4 km/h SO 15,7 C 20,3 C 1,3 km/h
25.05.2012 22,0 C 51 % 1016,9 hPa 0,0 l/m 3,7 km/h N-NO 9,8 C 21,7 C 2,0 km/h
26.05.2012 20,9 C 47 % 1015,1 hPa 0,0 l/m 2,4 km/h NO 7,5 C 20,6 C 1,3 km/h
27.05.2012 17,7 C 60 % 1015,0 hPa 0,0 l/m 2,5 km/h N-NO 9,0 C 17,5 C 1,4 km/h
28.05.2012 20,6 C 54 % 1013,7 hPa 0,0 l/m 2,2 km/h NO 9,6 C 20,5 C 1,2 km/h
29.05.2012 22,4 C 53 % 1013,0 hPa 0,0 l/m 1,7 km/h N-NO 10,6 C 22,3 C 1,0 km/h
30.05.2012 20,3 C 62 % 1015,5 hPa 0,0 l/m 2,0 km/h NO 12,0 C 20,2 C 1,1 km/h
31.05.2012 19,4 C 65 % 1016,5 hPa 3,2 l/m 5,5 km/h O-SO 12,1 C 18,8 C 3,1 km/h
Min-Datum 17.05.12 26.05.12 21.05.12 14 Tage 01.05.12 - 17.05.12 16.05.12 01.05.12
Min-Zeit 05:30 17:30 14:30 - 05:30 - 05:30 03:30 05:30
Minimum 0,8 C 21 % 996,6 hPa - 0,0 km/h - -1,4 C -4,3 C 0,0 km/h
Max-Datum 29.05.12 03.05.12 12.05.12 21.05.12 02.05.12 - 24.05.12 29.05.12 02.05.12
Max-Zeit 17:30 04:30 22:30 23:30 15:30 - 13:30 17:30 15:30
Maximum 35,3 C 85 % 1029,3 hPa 8,9 l/m 45,4 km/h
W-SW
- 20,9 C 35,3 C 25,2 km/h
W-SW
Durchschnitt 17,1 C 64 % 1013,6 hPa #44,1 l/m 4,7 km/h SO 9,4 C 16,4 C 2,6 km/h

Durchschnitt Minimum Temp.9,1 C
Durchschnitt Maximum Temp.26,7 C
www.sexauwetter.de